sensor_id;sensor_type;location;lat;lon;timestamp;P1;durP1;ratioP1;P2;durP2;ratioP2
71253;SDS011;59019;47.638;18.966;2022-09-09T00:03:52;3.05;;;0.80;;
71253;SDS011;59019;47.638;18.966;2022-09-09T00:06:30;3.15;;;0.80;;
71253;SDS011;59019;47.638;18.966;2022-09-09T00:09:01;3.57;;;0.97;;
71253;SDS011;59019;47.638;18.966;2022-09-09T00:11:36;2.80;;;0.90;;
71253;SDS011;59019;47.638;18.966;2022-09-09T00:14:14;4.40;;;1.00;;
71253;SDS011;59019;47.638;18.966;2022-09-09T00:17:00;5.85;;;1.10;;
71253;SDS011;59019;47.638;18.966;2022-09-09T00:24:46;4.07;;;0.90;;
71253;SDS011;59019;47.638;18.966;2022-09-09T00:32:38;3.70;;;1.00;;
71253;SDS011;59019;47.638;18.966;2022-09-09T00:35:27;4.13;;;1.00;;
71253;SDS011;59019;47.638;18.966;2022-09-09T00:37:54;5.35;;;2.30;;
71253;SDS011;59019;47.638;18.966;2022-09-09T00:40:32;3.47;;;1.40;;
71253;SDS011;59019;47.638;18.966;2022-09-09T00:45:54;5.68;;;1.10;;
71253;SDS011;59019;47.638;18.966;2022-09-09T00:48:45;3.40;;;1.00;;
71253;SDS011;59019;47.638;18.966;2022-09-09T00:51:17;3.53;;;1.30;;
71253;SDS011;59019;47.638;18.966;2022-09-09T00:56:37;4.13;;;1.45;;
71253;SDS011;59019;47.638;18.966;2022-09-09T01:01:39;3.63;;;1.47;;
71253;SDS011;59019;47.638;18.966;2022-09-09T01:04:07;4.63;;;1.90;;
71253;SDS011;59019;47.638;18.966;2022-09-09T01:06:41;5.60;;;1.63;;
71253;SDS011;59019;47.638;18.966;2022-09-09T01:17:16;5.00;;;1.97;;
71253;SDS011;59019;47.638;18.966;2022-09-09T01:27:48;4.77;;;1.50;;
71253;SDS011;59019;47.638;18.966;2022-09-09T01:30:16;3.40;;;1.40;;
71253;SDS011;59019;47.638;18.966;2022-09-09T01:32:44;3.28;;;1.27;;
71253;SDS011;59019;47.638;18.966;2022-09-09T01:35:20;3.30;;;1.33;;
71253;SDS011;59019;47.638;18.966;2022-09-09T01:37:55;2.95;;;1.10;;
71253;SDS011;59019;47.638;18.966;2022-09-09T01:40:21;2.90;;;1.20;;
71253;SDS011;59019;47.638;18.966;2022-09-09T01:42:47;3.17;;;1.20;;
71253;SDS011;59019;47.638;18.966;2022-09-09T01:45:12;4.63;;;1.30;;
71253;SDS011;59019;47.638;18.966;2022-09-09T01:47:38;3.07;;;1.20;;
71253;SDS011;59019;47.638;18.966;2022-09-09T01:50:03;2.80;;;1.10;;
71253;SDS011;59019;47.638;18.966;2022-09-09T01:52:30;3.38;;;1.10;;
71253;SDS011;59019;47.638;18.966;2022-09-09T01:54:58;3.03;;;0.93;;
71253;SDS011;59019;47.638;18.966;2022-09-09T01:57:24;2.90;;;1.00;;
71253;SDS011;59019;47.638;18.966;2022-09-09T02:00:03;3.95;;;1.00;;
71253;SDS011;59019;47.638;18.966;2022-09-09T02:05:45;2.67;;;1.10;;
71253;SDS011;59019;47.638;18.966;2022-09-09T02:08:21;3.78;;;1.20;;
71253;SDS011;59019;47.638;18.966;2022-09-09T02:13:28;3.75;;;1.30;;
71253;SDS011;59019;47.638;18.966;2022-09-09T02:18:45;6.27;;;1.60;;
71253;SDS011;59019;47.638;18.966;2022-09-09T02:21:15;3.85;;;1.58;;
71253;SDS011;59019;47.638;18.966;2022-09-09T02:23:42;3.38;;;1.80;;
71253;SDS011;59019;47.638;18.966;2022-09-09T02:26:10;3.97;;;2.10;;
71253;SDS011;59019;47.638;18.966;2022-09-09T02:28:39;5.13;;;2.25;;
71253;SDS011;59019;47.638;18.966;2022-09-09T02:31:07;3.97;;;2.13;;
71253;SDS011;59019;47.638;18.966;2022-09-09T02:33:34;5.10;;;2.22;;
71253;SDS011;59019;47.638;18.966;2022-09-09T02:36:03;3.90;;;2.10;;
71253;SDS011;59019;47.638;18.966;2022-09-09T02:38:33;6.23;;;2.00;;
71253;SDS011;59019;47.638;18.966;2022-09-09T02:41:02;5.57;;;2.15;;
71253;SDS011;59019;47.638;18.966;2022-09-09T02:43:32;5.18;;;2.55;;
71253;SDS011;59019;47.638;18.966;2022-09-09T02:49:57;5.00;;;2.47;;
71253;SDS011;59019;47.638;18.966;2022-09-09T02:52:09;5.13;;;2.33;;
71253;SDS011;59019;47.638;18.966;2022-09-09T02:54:42;5.38;;;2.15;;
71253;SDS011;59019;47.638;18.966;2022-09-09T02:57:12;4.10;;;2.22;;
71253;SDS011;59019;47.638;18.966;2022-09-09T02:59:43;4.00;;;2.15;;
71253;SDS011;59019;47.638;18.966;2022-09-09T03:02:09;3.90;;;2.00;;
71253;SDS011;59019;47.638;18.966;2022-09-09T03:04:39;4.75;;;2.67;;
71253;SDS011;59019;47.638;18.966;2022-09-09T03:07:05;4.03;;;2.33;;
71253;SDS011;59019;47.638;18.966;2022-09-09T03:09:31;5.03;;;2.53;;
71253;SDS011;59019;47.638;18.966;2022-09-09T03:11:57;4.43;;;2.53;;
71253;SDS011;59019;47.638;18.966;2022-09-09T03:14:24;4.05;;;2.28;;
71253;SDS011;59019;47.638;18.966;2022-09-09T03:16:50;4.90;;;2.60;;
71253;SDS011;59019;47.638;18.966;2022-09-09T03:19:16;5.95;;;2.67;;
71253;SDS011;59019;47.638;18.966;2022-09-09T03:21:43;4.80;;;2.77;;
71253;SDS011;59019;47.638;18.966;2022-09-09T03:24:10;5.63;;;3.03;;
71253;SDS011;59019;47.638;18.966;2022-09-09T03:26:35;6.23;;;2.93;;
71253;SDS011;59019;47.638;18.966;2022-09-09T03:29:03;5.22;;;2.70;;
71253;SDS011;59019;47.638;18.966;2022-09-09T03:31:31;6.90;;;2.90;;
71253;SDS011;59019;47.638;18.966;2022-09-09T03:33:57;6.50;;;3.00;;
71253;SDS011;59019;47.638;18.966;2022-09-09T03:36:24;5.33;;;2.77;;
71253;SDS011;59019;47.638;18.966;2022-09-09T03:38:52;5.80;;;3.60;;
71253;SDS011;59019;47.638;18.966;2022-09-09T03:41:19;6.35;;;3.03;;
71253;SDS011;59019;47.638;18.966;2022-09-09T03:43:46;5.78;;;3.03;;
71253;SDS011;59019;47.638;18.966;2022-09-09T03:46:11;6.07;;;2.93;;
71253;SDS011;59019;47.638;18.966;2022-09-09T03:48:37;6.80;;;3.57;;
71253;SDS011;59019;47.638;18.966;2022-09-09T03:51:02;6.22;;;3.28;;
71253;SDS011;59019;47.638;18.966;2022-09-09T03:53:28;5.63;;;3.33;;
71253;SDS011;59019;47.638;18.966;2022-09-09T03:55:54;5.30;;;3.22;;
71253;SDS011;59019;47.638;18.966;2022-09-09T03:58:22;5.53;;;3.42;;
71253;SDS011;59019;47.638;18.966;2022-09-09T04:03:20;5.63;;;3.53;;
71253;SDS011;59019;47.638;18.966;2022-09-09T04:05:50;6.50;;;3.50;;
71253;SDS011;59019;47.638;18.966;2022-09-09T04:08:17;7.57;;;4.22;;
71253;SDS011;59019;47.638;18.966;2022-09-09T04:10:47;7.78;;;3.83;;
71253;SDS011;59019;47.638;18.966;2022-09-09T04:13:15;5.33;;;3.53;;
71253;SDS011;59019;47.638;18.966;2022-09-09T04:15:43;5.95;;;3.65;;
71253;SDS011;59019;47.638;18.966;2022-09-09T04:18:10;7.72;;;3.67;;
71253;SDS011;59019;47.638;18.966;2022-09-09T04:20:36;5.45;;;3.13;;
71253;SDS011;59019;47.638;18.966;2022-09-09T04:23:03;6.20;;;3.28;;
71253;SDS011;59019;47.638;18.966;2022-09-09T04:25:28;7.27;;;3.07;;
71253;SDS011;59019;47.638;18.966;2022-09-09T04:27:54;5.22;;;3.22;;
71253;SDS011;59019;47.638;18.966;2022-09-09T04:30:21;6.50;;;2.78;;
71253;SDS011;59019;47.638;18.966;2022-09-09T04:32:47;4.07;;;2.13;;
71253;SDS011;59019;47.638;18.966;2022-09-09T04:35:13;4.75;;;2.90;;
71253;SDS011;59019;47.638;18.966;2022-09-09T04:37:38;6.50;;;3.27;;
71253;SDS011;59019;47.638;18.966;2022-09-09T04:40:04;4.57;;;2.55;;
71253;SDS011;59019;47.638;18.966;2022-09-09T04:42:34;5.73;;;2.60;;
71253;SDS011;59019;47.638;18.966;2022-09-09T04:45:01;5.20;;;2.83;;
71253;SDS011;59019;47.638;18.966;2022-09-09T04:47:27;4.90;;;2.70;;
71253;SDS011;59019;47.638;18.966;2022-09-09T04:49:53;4.85;;;2.53;;
71253;SDS011;59019;47.638;18.966;2022-09-09T04:52:19;4.35;;;2.20;;
71253;SDS011;59019;47.638;18.966;2022-09-09T04:54:46;6.90;;;2.20;;
71253;SDS011;59019;47.638;18.966;2022-09-09T04:57:11;3.75;;;1.80;;
71253;SDS011;59019;47.638;18.966;2022-09-09T04:59:37;4.30;;;2.37;;
71253;SDS011;59019;47.638;18.966;2022-09-09T05:02:05;3.67;;;1.80;;
71253;SDS011;59019;47.638;18.966;2022-09-09T05:04:31;6.40;;;1.95;;
71253;SDS011;59019;47.638;18.966;2022-09-09T05:06:58;9.40;;;2.50;;
71253;SDS011;59019;47.638;18.966;2022-09-09T05:09:24;3.45;;;1.50;;
71253;SDS011;59019;47.638;18.966;2022-09-09T05:11:50;5.50;;;1.63;;
71253;SDS011;59019;47.638;18.966;2022-09-09T05:14:16;3.60;;;1.60;;
71253;SDS011;59019;47.638;18.966;2022-09-09T05:16:42;3.33;;;1.55;;
71253;SDS011;59019;47.638;18.966;2022-09-09T05:19:10;4.10;;;1.70;;
71253;SDS011;59019;47.638;18.966;2022-09-09T05:21:35;5.28;;;1.73;;
71253;SDS011;59019;47.638;18.966;2022-09-09T05:24:01;3.83;;;1.97;;
71253;SDS011;59019;47.638;18.966;2022-09-09T05:26:27;4.15;;;1.90;;
71253;SDS011;59019;47.638;18.966;2022-09-09T05:28:54;4.03;;;2.20;;
71253;SDS011;59019;47.638;18.966;2022-09-09T05:31:20;4.93;;;2.10;;
71253;SDS011;59019;47.638;18.966;2022-09-09T05:33:46;5.47;;;2.33;;
71253;SDS011;59019;47.638;18.966;2022-09-09T05:36:15;4.85;;;2.40;;
71253;SDS011;59019;47.638;18.966;2022-09-09T05:38:42;3.90;;;2.13;;
71253;SDS011;59019;47.638;18.966;2022-09-09T05:41:09;4.43;;;2.23;;
71253;SDS011;59019;47.638;18.966;2022-09-09T05:43:36;6.45;;;2.45;;
71253;SDS011;59019;47.638;18.966;2022-09-09T05:48:34;5.50;;;2.97;;
71253;SDS011;59019;47.638;18.966;2022-09-09T05:51:03;4.40;;;2.63;;
71253;SDS011;59019;47.638;18.966;2022-09-09T05:53:30;5.87;;;3.13;;
71253;SDS011;59019;47.638;18.966;2022-09-09T05:58:31;5.57;;;3.00;;
71253;SDS011;59019;47.638;18.966;2022-09-09T06:01:04;5.20;;;3.03;;
71253;SDS011;59019;47.638;18.966;2022-09-09T06:03:31;6.18;;;3.60;;
71253;SDS011;59019;47.638;18.966;2022-09-09T06:06:02;5.10;;;3.03;;
71253;SDS011;59019;47.638;18.966;2022-09-09T06:08:35;4.97;;;3.22;;
71253;SDS011;59019;47.638;18.966;2022-09-09T06:11:06;5.35;;;2.85;;
71253;SDS011;59019;47.638;18.966;2022-09-09T06:13:37;5.18;;;2.78;;
71253;SDS011;59019;47.638;18.966;2022-09-09T06:16:04;4.50;;;2.80;;
71253;SDS011;59019;47.638;18.966;2022-09-09T06:18:32;7.60;;;2.40;;
71253;SDS011;59019;47.638;18.966;2022-09-09T06:21:01;3.50;;;1.95;;
71253;SDS011;59019;47.638;18.966;2022-09-09T06:23:31;4.05;;;2.08;;
71253;SDS011;59019;47.638;18.966;2022-09-09T06:26:10;3.80;;;1.90;;
71253;SDS011;59019;47.638;18.966;2022-09-09T06:28:37;6.40;;;2.30;;
71253;SDS011;59019;47.638;18.966;2022-09-09T06:31:07;4.13;;;2.28;;
71253;SDS011;59019;47.638;18.966;2022-09-09T06:33:36;4.03;;;2.20;;
71253;SDS011;59019;47.638;18.966;2022-09-09T06:36:04;4.28;;;2.00;;
71253;SDS011;59019;47.638;18.966;2022-09-09T06:38:30;4.28;;;2.30;;
71253;SDS011;59019;47.638;18.966;2022-09-09T06:40:59;4.80;;;2.08;;
71253;SDS011;59019;47.638;18.966;2022-09-09T06:43:25;4.10;;;2.03;;
71253;SDS011;59019;47.638;18.966;2022-09-09T06:48:20;4.00;;;1.75;;
71253;SDS011;59019;47.638;18.966;2022-09-09T06:50:46;4.32;;;1.88;;
71253;SDS011;59019;47.638;18.966;2022-09-09T06:53:12;3.47;;;1.57;;
71253;SDS011;59019;47.638;18.966;2022-09-09T06:55:41;3.33;;;1.50;;
71253;SDS011;59019;47.638;18.966;2022-09-09T06:58:09;3.88;;;1.60;;
71253;SDS011;59019;47.638;18.966;2022-09-09T07:00:34;4.57;;;1.70;;
71253;SDS011;59019;47.638;18.966;2022-09-09T07:03:02;4.25;;;1.52;;
71253;SDS011;59019;47.638;18.966;2022-09-09T07:05:28;3.57;;;1.60;;
71253;SDS011;59019;47.638;18.966;2022-09-09T07:07:53;4.57;;;1.80;;
71253;SDS011;59019;47.638;18.966;2022-09-09T07:10:19;3.63;;;1.58;;
71253;SDS011;59019;47.638;18.966;2022-09-09T07:12:45;4.50;;;1.40;;
71253;SDS011;59019;47.638;18.966;2022-09-09T07:15:16;3.55;;;1.67;;
71253;SDS011;59019;47.638;18.966;2022-09-09T07:17:43;4.45;;;1.60;;
71253;SDS011;59019;47.638;18.966;2022-09-09T07:20:09;3.47;;;1.77;;
71253;SDS011;59019;47.638;18.966;2022-09-09T07:22:35;3.60;;;1.70;;
71253;SDS011;59019;47.638;18.966;2022-09-09T07:25:01;3.70;;;1.80;;
71253;SDS011;59019;47.638;18.966;2022-09-09T07:27:27;4.65;;;1.70;;
71253;SDS011;59019;47.638;18.966;2022-09-09T07:29:52;3.10;;;1.60;;
71253;SDS011;59019;47.638;18.966;2022-09-09T07:32:19;4.95;;;1.70;;
71253;SDS011;59019;47.638;18.966;2022-09-09T07:34:45;3.42;;;1.50;;
71253;SDS011;59019;47.638;18.966;2022-09-09T07:37:12;4.85;;;1.60;;
71253;SDS011;59019;47.638;18.966;2022-09-09T07:39:38;3.27;;;1.53;;
71253;SDS011;59019;47.638;18.966;2022-09-09T07:42:04;4.50;;;1.45;;
71253;SDS011;59019;47.638;18.966;2022-09-09T07:44:31;3.60;;;1.60;;
71253;SDS011;59019;47.638;18.966;2022-09-09T07:47:00;3.75;;;1.48;;
71253;SDS011;59019;47.638;18.966;2022-09-09T07:49:26;3.50;;;1.42;;
71253;SDS011;59019;47.638;18.966;2022-09-09T07:51:52;4.10;;;1.50;;
71253;SDS011;59019;47.638;18.966;2022-09-09T07:54:18;5.13;;;1.40;;
71253;SDS011;59019;47.638;18.966;2022-09-09T07:56:45;3.78;;;1.58;;
71253;SDS011;59019;47.638;18.966;2022-09-09T07:59:11;3.42;;;1.17;;
71253;SDS011;59019;47.638;18.966;2022-09-09T08:01:45;4.05;;;1.48;;
71253;SDS011;59019;47.638;18.966;2022-09-09T08:04:16;3.70;;;1.40;;
71253;SDS011;59019;47.638;18.966;2022-09-09T08:06:53;3.42;;;1.30;;
71253;SDS011;59019;47.638;18.966;2022-09-09T08:09:20;4.40;;;1.30;;
71253;SDS011;59019;47.638;18.966;2022-09-09T08:11:50;2.88;;;1.02;;
71253;SDS011;59019;47.638;18.966;2022-09-09T08:14:16;2.60;;;1.10;;
71253;SDS011;59019;47.638;18.966;2022-09-09T08:16:43;3.72;;;1.30;;
71253;SDS011;59019;47.638;18.966;2022-09-09T08:19:10;3.85;;;1.40;;
71253;SDS011;59019;47.638;18.966;2022-09-09T08:21:37;2.88;;;1.40;;
71253;SDS011;59019;47.638;18.966;2022-09-09T08:24:05;3.05;;;1.23;;
71253;SDS011;59019;47.638;18.966;2022-09-09T08:26:33;3.55;;;1.08;;
71253;SDS011;59019;47.638;18.966;2022-09-09T08:29:00;4.32;;;1.27;;
71253;SDS011;59019;47.638;18.966;2022-09-09T08:31:34;2.95;;;1.30;;
71253;SDS011;59019;47.638;18.966;2022-09-09T08:34:03;4.03;;;1.23;;
71253;SDS011;59019;47.638;18.966;2022-09-09T08:36:30;3.25;;;1.00;;
71253;SDS011;59019;47.638;18.966;2022-09-09T08:38:59;2.80;;;1.10;;
71253;SDS011;59019;47.638;18.966;2022-09-09T08:52:36;3.20;;;1.13;;
71253;SDS011;59019;47.638;18.966;2022-09-09T08:57:52;2.47;;;0.98;;
71253;SDS011;59019;47.638;18.966;2022-09-09T09:00:21;3.17;;;1.10;;
71253;SDS011;59019;47.638;18.966;2022-09-09T09:05:57;3.15;;;1.00;;
71253;SDS011;59019;47.638;18.966;2022-09-09T09:08:36;3.35;;;0.90;;
71253;SDS011;59019;47.638;18.966;2022-09-09T09:11:09;3.70;;;0.90;;
71253;SDS011;59019;47.638;18.966;2022-09-09T09:18:59;2.92;;;1.10;;
71253;SDS011;59019;47.638;18.966;2022-09-09T09:21:36;2.78;;;1.10;;
71253;SDS011;59019;47.638;18.966;2022-09-09T09:24:18;3.85;;;1.17;;
71253;SDS011;59019;47.638;18.966;2022-09-09T09:26:46;2.80;;;1.02;;
71253;SDS011;59019;47.638;18.966;2022-09-09T09:29:13;3.00;;;1.10;;
71253;SDS011;59019;47.638;18.966;2022-09-09T09:31:49;3.50;;;1.30;;
71253;SDS011;59019;47.638;18.966;2022-09-09T09:34:17;3.13;;;0.98;;
71253;SDS011;59019;47.638;18.966;2022-09-09T09:39:24;2.88;;;1.00;;
71253;SDS011;59019;47.638;18.966;2022-09-09T09:41:54;2.80;;;1.05;;
71253;SDS011;59019;47.638;18.966;2022-09-09T09:44:27;2.60;;;1.10;;
71253;SDS011;59019;47.638;18.966;2022-09-09T09:47:13;3.05;;;1.10;;
71253;SDS011;59019;47.638;18.966;2022-09-09T09:49:53;2.67;;;1.00;;
71253;SDS011;59019;47.638;18.966;2022-09-09T09:52:22;3.63;;;1.17;;
71253;SDS011;59019;47.638;18.966;2022-09-09T09:54:50;3.20;;;0.90;;
71253;SDS011;59019;47.638;18.966;2022-09-09T09:57:17;2.83;;;1.10;;
71253;SDS011;59019;47.638;18.966;2022-09-09T09:59:48;3.35;;;0.80;;
71253;SDS011;59019;47.638;18.966;2022-09-09T10:02:15;4.10;;;1.07;;
71253;SDS011;59019;47.638;18.966;2022-09-09T10:04:43;1.92;;;0.65;;
71253;SDS011;59019;47.638;18.966;2022-09-09T10:07:20;2.75;;;0.93;;
71253;SDS011;59019;47.638;18.966;2022-09-09T10:09:51;2.60;;;1.00;;
71253;SDS011;59019;47.638;18.966;2022-09-09T10:12:24;3.58;;;0.80;;
71253;SDS011;59019;47.638;18.966;2022-09-09T10:20:46;2.60;;;1.00;;
71253;SDS011;59019;47.638;18.966;2022-09-09T10:29:20;2.40;;;0.70;;
71253;SDS011;59019;47.638;18.966;2022-09-09T10:37:44;3.85;;;0.70;;
71253;SDS011;59019;47.638;18.966;2022-09-09T10:40:25;2.88;;;0.60;;
71253;SDS011;59019;47.638;18.966;2022-09-09T10:46:23;3.13;;;0.60;;
71253;SDS011;59019;47.638;18.966;2022-09-09T10:55:12;2.53;;;0.80;;
71253;SDS011;59019;47.638;18.966;2022-09-09T10:57:45;2.07;;;0.70;;
71253;SDS011;59019;47.638;18.966;2022-09-09T11:00:17;2.50;;;0.93;;
71253;SDS011;59019;47.638;18.966;2022-09-09T11:02:47;2.35;;;0.80;;
71253;SDS011;59019;47.638;18.966;2022-09-09T11:18:55;3.65;;;0.88;;
71253;SDS011;59019;47.638;18.966;2022-09-09T11:21:29;2.50;;;1.00;;
71253;SDS011;59019;47.638;18.966;2022-09-09T11:24:02;3.03;;;1.10;;
71253;SDS011;59019;47.638;18.966;2022-09-09T11:26:41;2.67;;;0.95;;
71253;SDS011;59019;47.638;18.966;2022-09-09T11:32:18;4.72;;;0.90;;
71253;SDS011;59019;47.638;18.966;2022-09-09T11:34:51;2.67;;;0.88;;
71253;SDS011;59019;47.638;18.966;2022-09-09T11:40:24;2.88;;;1.00;;
71253;SDS011;59019;47.638;18.966;2022-09-09T11:43:05;4.25;;;0.85;;
71253;SDS011;59019;47.638;18.966;2022-09-09T11:45:38;3.05;;;0.77;;
71253;SDS011;59019;47.638;18.966;2022-09-09T11:48:21;3.05;;;0.90;;
71253;SDS011;59019;47.638;18.966;2022-09-09T11:51:01;3.87;;;0.90;;
71253;SDS011;59019;47.638;18.966;2022-09-09T11:53:31;2.40;;;0.80;;
71253;SDS011;59019;47.638;18.966;2022-09-09T11:59:24;2.47;;;0.80;;
71253;SDS011;59019;47.638;18.966;2022-09-09T12:01:29;2.95;;;0.93;;
71253;SDS011;59019;47.638;18.966;2022-09-09T12:04:10;2.10;;;0.70;;
71253;SDS011;59019;47.638;18.966;2022-09-09T12:07:02;3.67;;;0.80;;
71253;SDS011;59019;47.638;18.966;2022-09-09T12:19:40;3.22;;;0.80;;
71253;SDS011;59019;47.638;18.966;2022-09-09T12:30:56;3.00;;;0.88;;
71253;SDS011;59019;47.638;18.966;2022-09-09T12:33:36;2.35;;;0.73;;
71253;SDS011;59019;47.638;18.966;2022-09-09T12:36:04;2.58;;;0.80;;
71253;SDS011;59019;47.638;18.966;2022-09-09T12:38:36;3.05;;;0.90;;
71253;SDS011;59019;47.638;18.966;2022-09-09T12:41:04;2.25;;;0.70;;
71253;SDS011;59019;47.638;18.966;2022-09-09T12:43:29;2.45;;;0.88;;
71253;SDS011;59019;47.638;18.966;2022-09-09T12:46:07;2.13;;;0.73;;
71253;SDS011;59019;47.638;18.966;2022-09-09T12:48:39;2.63;;;0.73;;
71253;SDS011;59019;47.638;18.966;2022-09-09T12:51:21;2.60;;;0.80;;
71253;SDS011;59019;47.638;18.966;2022-09-09T12:53:53;2.05;;;0.70;;
71253;SDS011;59019;47.638;18.966;2022-09-09T12:56:24;2.65;;;0.75;;
71253;SDS011;59019;47.638;18.966;2022-09-09T12:58:52;2.70;;;0.77;;
71253;SDS011;59019;47.638;18.966;2022-09-09T13:01:24;3.28;;;0.85;;
71253;SDS011;59019;47.638;18.966;2022-09-09T13:03:50;2.35;;;0.80;;
71253;SDS011;59019;47.638;18.966;2022-09-09T13:08:52;2.55;;;0.80;;
71253;SDS011;59019;47.638;18.966;2022-09-09T13:11:30;1.88;;;0.70;;
71253;SDS011;59019;47.638;18.966;2022-09-09T13:14:03;3.28;;;0.80;;
71253;SDS011;59019;47.638;18.966;2022-09-09T13:16:30;2.67;;;0.88;;
71253;SDS011;59019;47.638;18.966;2022-09-09T13:19:01;2.65;;;0.60;;
71253;SDS011;59019;47.638;18.966;2022-09-09T13:21:36;2.67;;;0.90;;
71253;SDS011;59019;47.638;18.966;2022-09-09T13:24:06;2.42;;;0.70;;
71253;SDS011;59019;47.638;18.966;2022-09-09T13:26:53;3.30;;;0.70;;
71253;SDS011;59019;47.638;18.966;2022-09-09T13:29:21;2.38;;;0.70;;
71253;SDS011;59019;47.638;18.966;2022-09-09T13:31:47;2.72;;;0.70;;
71253;SDS011;59019;47.638;18.966;2022-09-09T13:34:14;2.42;;;0.77;;
71253;SDS011;59019;47.638;18.966;2022-09-09T13:36:52;2.13;;;0.70;;
71253;SDS011;59019;47.638;18.966;2022-09-09T13:39:23;2.05;;;0.70;;
71253;SDS011;59019;47.638;18.966;2022-09-09T13:41:48;2.53;;;0.70;;
71253;SDS011;59019;47.638;18.966;2022-09-09T13:44:17;1.92;;;0.55;;
71253;SDS011;59019;47.638;18.966;2022-09-09T13:47:38;2.83;;;0.63;;
71253;SDS011;59019;47.638;18.966;2022-09-09T13:49:45;2.78;;;0.70;;
71253;SDS011;59019;47.638;18.966;2022-09-09T13:52:13;2.20;;;0.80;;
71253;SDS011;59019;47.638;18.966;2022-09-09T13:54:46;3.33;;;0.82;;
71253;SDS011;59019;47.638;18.966;2022-09-09T13:57:19;2.00;;;0.70;;
71253;SDS011;59019;47.638;18.966;2022-09-09T13:59:47;2.70;;;0.60;;
71253;SDS011;59019;47.638;18.966;2022-09-09T14:02:14;2.70;;;0.70;;
71253;SDS011;59019;47.638;18.966;2022-09-09T14:04:41;2.83;;;0.80;;
71253;SDS011;59019;47.638;18.966;2022-09-09T14:07:09;2.95;;;0.70;;
71253;SDS011;59019;47.638;18.966;2022-09-09T14:09:37;3.17;;;0.70;;
71253;SDS011;59019;47.638;18.966;2022-09-09T14:12:04;4.22;;;0.63;;
71253;SDS011;59019;47.638;18.966;2022-09-09T14:14:30;2.30;;;0.70;;
71253;SDS011;59019;47.638;18.966;2022-09-09T14:16:55;2.30;;;0.77;;
71253;SDS011;59019;47.638;18.966;2022-09-09T14:19:21;2.58;;;0.70;;
71253;SDS011;59019;47.638;18.966;2022-09-09T14:21:46;2.00;;;0.50;;
71253;SDS011;59019;47.638;18.966;2022-09-09T14:24:12;3.33;;;0.70;;
71253;SDS011;59019;47.638;18.966;2022-09-09T14:26:37;3.95;;;0.70;;
71253;SDS011;59019;47.638;18.966;2022-09-09T14:29:03;3.33;;;0.70;;
71253;SDS011;59019;47.638;18.966;2022-09-09T14:31:29;1.90;;;0.60;;
71253;SDS011;59019;47.638;18.966;2022-09-09T14:33:54;2.50;;;0.60;;
71253;SDS011;59019;47.638;18.966;2022-09-09T14:36:20;2.20;;;0.50;;
71253;SDS011;59019;47.638;18.966;2022-09-09T14:38:45;3.13;;;0.70;;
71253;SDS011;59019;47.638;18.966;2022-09-09T14:41:12;2.60;;;0.60;;
71253;SDS011;59019;47.638;18.966;2022-09-09T14:43:41;2.22;;;0.50;;
71253;SDS011;59019;47.638;18.966;2022-09-09T14:46:08;3.58;;;0.60;;
71253;SDS011;59019;47.638;18.966;2022-09-09T14:48:38;3.33;;;0.68;;
71253;SDS011;59019;47.638;18.966;2022-09-09T14:51:08;2.50;;;0.60;;
71253;SDS011;59019;47.638;18.966;2022-09-09T14:53:40;2.17;;;0.60;;
71253;SDS011;59019;47.638;18.966;2022-09-09T14:56:06;3.63;;;0.70;;
71253;SDS011;59019;47.638;18.966;2022-09-09T14:58:34;2.55;;;0.60;;
71253;SDS011;59019;47.638;18.966;2022-09-09T15:01:04;3.83;;;0.60;;
71253;SDS011;59019;47.638;18.966;2022-09-09T15:03:31;3.63;;;0.83;;
71253;SDS011;59019;47.638;18.966;2022-09-09T15:05:56;2.28;;;0.50;;
71253;SDS011;59019;47.638;18.966;2022-09-09T15:08:23;2.67;;;0.68;;
71253;SDS011;59019;47.638;18.966;2022-09-09T15:10:49;4.07;;;0.65;;
71253;SDS011;59019;47.638;18.966;2022-09-09T15:13:16;1.80;;;0.50;;
71253;SDS011;59019;47.638;18.966;2022-09-09T15:15:43;2.03;;;0.60;;
71253;SDS011;59019;47.638;18.966;2022-09-09T15:18:09;3.70;;;0.70;;
71253;SDS011;59019;47.638;18.966;2022-09-09T15:20:34;3.40;;;0.70;;
71253;SDS011;59019;47.638;18.966;2022-09-09T15:23:02;2.85;;;0.70;;
71253;SDS011;59019;47.638;18.966;2022-09-09T15:25:28;2.40;;;0.60;;
71253;SDS011;59019;47.638;18.966;2022-09-09T15:27:54;3.67;;;0.68;;
71253;SDS011;59019;47.638;18.966;2022-09-09T15:30:20;2.53;;;0.60;;
71253;SDS011;59019;47.638;18.966;2022-09-09T15:32:46;4.20;;;0.70;;
71253;SDS011;59019;47.638;18.966;2022-09-09T15:35:12;5.30;;;1.02;;
71253;SDS011;59019;47.638;18.966;2022-09-09T15:37:37;4.57;;;0.80;;
71253;SDS011;59019;47.638;18.966;2022-09-09T15:40:03;2.63;;;0.77;;
71253;SDS011;59019;47.638;18.966;2022-09-09T15:42:29;3.75;;;0.70;;
71253;SDS011;59019;47.638;18.966;2022-09-09T15:44:55;3.05;;;0.60;;
71253;SDS011;59019;47.638;18.966;2022-09-09T15:47:20;2.03;;;0.60;;
71253;SDS011;59019;47.638;18.966;2022-09-09T15:49:46;2.83;;;0.75;;
71253;SDS011;59019;47.638;18.966;2022-09-09T15:52:12;3.63;;;0.70;;
71253;SDS011;59019;47.638;18.966;2022-09-09T15:54:37;3.58;;;0.70;;
71253;SDS011;59019;47.638;18.966;2022-09-09T15:57:04;2.20;;;0.50;;
71253;SDS011;59019;47.638;18.966;2022-09-09T15:59:31;3.10;;;0.75;;
71253;SDS011;59019;47.638;18.966;2022-09-09T16:01:58;5.07;;;0.82;;
71253;SDS011;59019;47.638;18.966;2022-09-09T16:04:25;3.38;;;0.70;;
71253;SDS011;59019;47.638;18.966;2022-09-09T16:06:52;3.47;;;0.80;;
71253;SDS011;59019;47.638;18.966;2022-09-09T16:09:20;2.93;;;0.80;;
71253;SDS011;59019;47.638;18.966;2022-09-09T16:11:45;2.33;;;0.60;;
71253;SDS011;59019;47.638;18.966;2022-09-09T16:14:12;3.38;;;0.60;;
71253;SDS011;59019;47.638;18.966;2022-09-09T16:16:40;2.55;;;0.70;;
71253;SDS011;59019;47.638;18.966;2022-09-09T16:19:07;4.83;;;0.70;;
71253;SDS011;59019;47.638;18.966;2022-09-09T16:21:42;2.72;;;0.70;;
71253;SDS011;59019;47.638;18.966;2022-09-09T16:24:11;3.13;;;0.70;;
71253;SDS011;59019;47.638;18.966;2022-09-09T16:26:39;2.60;;;0.60;;
71253;SDS011;59019;47.638;18.966;2022-09-09T16:29:07;2.30;;;0.80;;
71253;SDS011;59019;47.638;18.966;2022-09-09T16:31:33;3.10;;;0.70;;
71253;SDS011;59019;47.638;18.966;2022-09-09T16:33:59;2.83;;;0.70;;
71253;SDS011;59019;47.638;18.966;2022-09-09T16:36:26;2.63;;;0.80;;
71253;SDS011;59019;47.638;18.966;2022-09-09T16:38:55;2.92;;;0.80;;
71253;SDS011;59019;47.638;18.966;2022-09-09T16:41:23;3.72;;;0.90;;
71253;SDS011;59019;47.638;18.966;2022-09-09T16:43:55;4.57;;;1.17;;
71253;SDS011;59019;47.638;18.966;2022-09-09T16:46:23;2.63;;;0.82;;
71253;SDS011;59019;47.638;18.966;2022-09-09T16:48:49;4.07;;;0.90;;
71253;SDS011;59019;47.638;18.966;2022-09-09T16:51:23;5.47;;;0.95;;
71253;SDS011;59019;47.638;18.966;2022-09-09T16:53:54;2.65;;;0.80;;
71253;SDS011;59019;47.638;18.966;2022-09-09T16:56:22;4.35;;;0.82;;
71253;SDS011;59019;47.638;18.966;2022-09-09T16:58:52;5.15;;;0.88;;
71253;SDS011;59019;47.638;18.966;2022-09-09T17:01:26;5.83;;;0.80;;
71253;SDS011;59019;47.638;18.966;2022-09-09T17:03:53;3.35;;;0.70;;
71253;SDS011;59019;47.638;18.966;2022-09-09T17:06:20;2.72;;;0.70;;
71253;SDS011;59019;47.638;18.966;2022-09-09T17:08:46;2.72;;;0.60;;
71253;SDS011;59019;47.638;18.966;2022-09-09T17:11:17;3.65;;;0.88;;
71253;SDS011;59019;47.638;18.966;2022-09-09T17:13:44;4.40;;;0.90;;
71253;SDS011;59019;47.638;18.966;2022-09-09T17:16:12;3.55;;;1.00;;
71253;SDS011;59019;47.638;18.966;2022-09-09T17:18:39;4.90;;;0.90;;
71253;SDS011;59019;47.638;18.966;2022-09-09T17:21:09;3.47;;;0.60;;